sensor_id;sensor_type;location;lat;lon;timestamp;P1;durP1;ratioP1;P2;durP2;ratioP2
80400;SDS011;69727;53.132;8.230;2023-05-07T00:01:05;24.60;;;11.85;;
80400;SDS011;69727;53.132;8.230;2023-05-07T00:03:31;19.90;;;11.77;;
80400;SDS011;69727;53.132;8.230;2023-05-07T00:05:57;23.52;;;11.55;;
80400;SDS011;69727;53.132;8.230;2023-05-07T00:08:22;23.55;;;12.45;;
80400;SDS011;69727;53.132;8.230;2023-05-07T00:10:48;24.57;;;12.87;;
80400;SDS011;69727;53.132;8.230;2023-05-07T00:13:13;24.50;;;12.27;;
80400;SDS011;69727;53.132;8.230;2023-05-07T00:15:39;23.95;;;12.48;;
80400;SDS011;69727;53.132;8.230;2023-05-07T00:18:04;22.55;;;12.48;;
80400;SDS011;69727;53.132;8.230;2023-05-07T00:20:29;24.80;;;12.90;;
80400;SDS011;69727;53.132;8.230;2023-05-07T00:22:55;23.30;;;11.80;;
80400;SDS011;69727;53.132;8.230;2023-05-07T00:25:20;21.77;;;10.32;;
80400;SDS011;69727;53.132;8.230;2023-05-07T00:27:46;23.95;;;11.48;;
80400;SDS011;69727;53.132;8.230;2023-05-07T00:30:11;24.70;;;12.25;;
80400;SDS011;69727;53.132;8.230;2023-05-07T00:32:37;22.60;;;11.15;;
80400;SDS011;69727;53.132;8.230;2023-05-07T00:35:03;23.85;;;12.23;;
80400;SDS011;69727;53.132;8.230;2023-05-07T00:37:30;23.30;;;11.20;;
80400;SDS011;69727;53.132;8.230;2023-05-07T00:39:55;22.20;;;12.18;;
80400;SDS011;69727;53.132;8.230;2023-05-07T00:42:20;20.40;;;12.00;;
80400;SDS011;69727;53.132;8.230;2023-05-07T00:44:46;22.75;;;12.30;;
80400;SDS011;69727;53.132;8.230;2023-05-07T00:47:12;25.80;;;12.90;;
80400;SDS011;69727;53.132;8.230;2023-05-07T00:49:39;23.42;;;12.55;;
80400;SDS011;69727;53.132;8.230;2023-05-07T00:52:06;21.27;;;12.68;;
80400;SDS011;69727;53.132;8.230;2023-05-07T00:54:33;21.40;;;12.00;;
80400;SDS011;69727;53.132;8.230;2023-05-07T00:56:59;23.00;;;12.23;;
80400;SDS011;69727;53.132;8.230;2023-05-07T00:59:26;21.40;;;11.68;;
80400;SDS011;69727;53.132;8.230;2023-05-07T01:01:52;24.27;;;12.98;;
80400;SDS011;69727;53.132;8.230;2023-05-07T01:04:18;23.33;;;12.27;;
80400;SDS011;69727;53.132;8.230;2023-05-07T01:06:44;21.87;;;11.67;;
80400;SDS011;69727;53.132;8.230;2023-05-07T01:09:10;23.23;;;12.40;;
80400;SDS011;69727;53.132;8.230;2023-05-07T01:11:37;20.27;;;11.32;;
80400;SDS011;69727;53.132;8.230;2023-05-07T01:14:03;24.02;;;12.77;;
80400;SDS011;69727;53.132;8.230;2023-05-07T01:16:29;22.80;;;12.45;;
80400;SDS011;69727;53.132;8.230;2023-05-07T01:18:54;22.30;;;12.95;;
80400;SDS011;69727;53.132;8.230;2023-05-07T01:21:21;23.92;;;12.77;;
80400;SDS011;69727;53.132;8.230;2023-05-07T01:23:51;22.17;;;12.02;;
80400;SDS011;69727;53.132;8.230;2023-05-07T01:26:17;20.52;;;11.82;;
80400;SDS011;69727;53.132;8.230;2023-05-07T01:28:44;22.67;;;11.65;;
80400;SDS011;69727;53.132;8.230;2023-05-07T01:31:10;22.52;;;11.75;;
80400;SDS011;69727;53.132;8.230;2023-05-07T01:33:38;23.85;;;12.85;;
80400;SDS011;69727;53.132;8.230;2023-05-07T01:36:07;21.98;;;12.02;;
80400;SDS011;69727;53.132;8.230;2023-05-07T01:38:36;22.02;;;11.82;;
80400;SDS011;69727;53.132;8.230;2023-05-07T01:41:03;22.70;;;11.93;;
80400;SDS011;69727;53.132;8.230;2023-05-07T01:43:29;21.05;;;11.63;;
80400;SDS011;69727;53.132;8.230;2023-05-07T01:45:55;22.98;;;12.23;;
80400;SDS011;69727;53.132;8.230;2023-05-07T01:48:22;21.95;;;11.82;;
80400;SDS011;69727;53.132;8.230;2023-05-07T01:50:49;18.45;;;10.77;;
80400;SDS011;69727;53.132;8.230;2023-05-07T01:53:15;20.10;;;11.45;;
80400;SDS011;69727;53.132;8.230;2023-05-07T01:55:41;20.27;;;11.23;;
80400;SDS011;69727;53.132;8.230;2023-05-07T01:58:06;20.33;;;11.97;;
80400;SDS011;69727;53.132;8.230;2023-05-07T02:00:31;21.38;;;12.07;;
80400;SDS011;69727;53.132;8.230;2023-05-07T02:02:57;20.10;;;10.90;;
80400;SDS011;69727;53.132;8.230;2023-05-07T02:05:23;20.98;;;12.02;;
80400;SDS011;69727;53.132;8.230;2023-05-07T02:07:48;19.70;;;11.43;;
80400;SDS011;69727;53.132;8.230;2023-05-07T02:10:14;21.00;;;12.00;;
80400;SDS011;69727;53.132;8.230;2023-05-07T02:12:39;21.52;;;12.13;;
80400;SDS011;69727;53.132;8.230;2023-05-07T02:15:05;17.90;;;11.02;;
80400;SDS011;69727;53.132;8.230;2023-05-07T02:17:31;20.75;;;11.45;;
80400;SDS011;69727;53.132;8.230;2023-05-07T02:19:59;20.38;;;11.40;;
80400;SDS011;69727;53.132;8.230;2023-05-07T02:22:25;21.67;;;11.68;;
80400;SDS011;69727;53.132;8.230;2023-05-07T02:24:50;21.45;;;11.95;;
80400;SDS011;69727;53.132;8.230;2023-05-07T02:27:16;19.88;;;10.88;;
80400;SDS011;69727;53.132;8.230;2023-05-07T02:29:41;23.25;;;12.20;;
80400;SDS011;69727;53.132;8.230;2023-05-07T02:32:07;19.98;;;11.07;;
80400;SDS011;69727;53.132;8.230;2023-05-07T02:34:32;21.13;;;12.07;;
80400;SDS011;69727;53.132;8.230;2023-05-07T02:36:57;22.00;;;12.02;;
80400;SDS011;69727;53.132;8.230;2023-05-07T02:39:23;23.30;;;12.60;;
80400;SDS011;69727;53.132;8.230;2023-05-07T02:41:48;21.15;;;11.88;;
80400;SDS011;69727;53.132;8.230;2023-05-07T02:44:14;19.92;;;11.48;;
80400;SDS011;69727;53.132;8.230;2023-05-07T02:46:39;23.50;;;13.20;;
80400;SDS011;69727;53.132;8.230;2023-05-07T02:49:05;21.30;;;12.23;;
80400;SDS011;69727;53.132;8.230;2023-05-07T02:51:31;21.88;;;11.27;;
80400;SDS011;69727;53.132;8.230;2023-05-07T02:53:56;22.70;;;12.25;;
80400;SDS011;69727;53.132;8.230;2023-05-07T02:56:22;22.65;;;12.48;;
80400;SDS011;69727;53.132;8.230;2023-05-07T02:58:47;24.67;;;13.05;;
80400;SDS011;69727;53.132;8.230;2023-05-07T03:01:13;23.70;;;12.80;;
80400;SDS011;69727;53.132;8.230;2023-05-07T03:03:39;21.92;;;12.25;;
80400;SDS011;69727;53.132;8.230;2023-05-07T03:06:04;23.23;;;12.48;;
80400;SDS011;69727;53.132;8.230;2023-05-07T03:08:30;21.90;;;12.52;;
80400;SDS011;69727;53.132;8.230;2023-05-07T03:10:55;20.63;;;12.07;;
80400;SDS011;69727;53.132;8.230;2023-05-07T03:13:21;23.02;;;12.40;;
80400;SDS011;69727;53.132;8.230;2023-05-07T03:15:46;24.42;;;12.65;;
80400;SDS011;69727;53.132;8.230;2023-05-07T03:18:12;20.73;;;11.70;;
80400;SDS011;69727;53.132;8.230;2023-05-07T03:20:37;21.10;;;10.83;;
80400;SDS011;69727;53.132;8.230;2023-05-07T03:23:03;19.85;;;9.82;;
80400;SDS011;69727;53.132;8.230;2023-05-07T03:25:28;19.48;;;10.60;;
80400;SDS011;69727;53.132;8.230;2023-05-07T03:27:55;20.60;;;10.65;;
80400;SDS011;69727;53.132;8.230;2023-05-07T03:30:21;19.05;;;9.80;;
80400;SDS011;69727;53.132;8.230;2023-05-07T03:32:46;19.50;;;9.77;;
80400;SDS011;69727;53.132;8.230;2023-05-07T03:35:11;19.17;;;10.10;;
80400;SDS011;69727;53.132;8.230;2023-05-07T03:37:37;20.03;;;9.80;;
80400;SDS011;69727;53.132;8.230;2023-05-07T03:40:03;19.13;;;10.20;;
80400;SDS011;69727;53.132;8.230;2023-05-07T03:42:29;18.27;;;9.48;;
80400;SDS011;69727;53.132;8.230;2023-05-07T03:44:55;20.48;;;10.10;;
80400;SDS011;69727;53.132;8.230;2023-05-07T03:47:20;20.30;;;11.45;;
80400;SDS011;69727;53.132;8.230;2023-05-07T03:49:46;22.20;;;10.17;;
80400;SDS011;69727;53.132;8.230;2023-05-07T03:52:11;20.20;;;9.87;;
80400;SDS011;69727;53.132;8.230;2023-05-07T03:54:36;20.33;;;10.15;;
80400;SDS011;69727;53.132;8.230;2023-05-07T03:57:02;21.43;;;10.90;;
80400;SDS011;69727;53.132;8.230;2023-05-07T03:59:27;21.70;;;11.18;;
80400;SDS011;69727;53.132;8.230;2023-05-07T04:01:53;19.47;;;9.87;;
80400;SDS011;69727;53.132;8.230;2023-05-07T04:04:18;21.80;;;10.67;;
80400;SDS011;69727;53.132;8.230;2023-05-07T04:06:43;22.60;;;10.47;;
80400;SDS011;69727;53.132;8.230;2023-05-07T04:09:09;19.75;;;10.18;;
80400;SDS011;69727;53.132;8.230;2023-05-07T04:11:35;20.23;;;10.30;;
80400;SDS011;69727;53.132;8.230;2023-05-07T04:14:00;20.83;;;9.88;;
80400;SDS011;69727;53.132;8.230;2023-05-07T04:16:26;20.95;;;10.68;;
80400;SDS011;69727;53.132;8.230;2023-05-07T04:18:51;19.80;;;9.63;;
80400;SDS011;69727;53.132;8.230;2023-05-07T04:21:20;20.80;;;10.47;;
80400;SDS011;69727;53.132;8.230;2023-05-07T04:23:46;19.40;;;10.13;;
80400;SDS011;69727;53.132;8.230;2023-05-07T04:26:12;21.50;;;10.25;;
80400;SDS011;69727;53.132;8.230;2023-05-07T04:28:38;18.73;;;9.98;;
80400;SDS011;69727;53.132;8.230;2023-05-07T04:31:05;20.08;;;10.30;;
80400;SDS011;69727;53.132;8.230;2023-05-07T04:33:31;19.55;;;9.45;;
80400;SDS011;69727;53.132;8.230;2023-05-07T04:35:57;18.60;;;9.15;;
80400;SDS011;69727;53.132;8.230;2023-05-07T04:38:27;18.83;;;9.07;;
80400;SDS011;69727;53.132;8.230;2023-05-07T04:40:56;19.52;;;10.00;;
80400;SDS011;69727;53.132;8.230;2023-05-07T04:43:22;20.10;;;9.40;;
80400;SDS011;69727;53.132;8.230;2023-05-07T04:45:49;19.27;;;9.10;;
80400;SDS011;69727;53.132;8.230;2023-05-07T04:48:15;19.27;;;10.20;;
80400;SDS011;69727;53.132;8.230;2023-05-07T04:50:41;17.60;;;9.10;;
80400;SDS011;69727;53.132;8.230;2023-05-07T04:53:06;21.07;;;9.70;;
80400;SDS011;69727;53.132;8.230;2023-05-07T04:55:31;19.50;;;10.20;;
80400;SDS011;69727;53.132;8.230;2023-05-07T04:57:57;20.97;;;10.67;;
80400;SDS011;69727;53.132;8.230;2023-05-07T05:00:22;21.27;;;10.10;;
80400;SDS011;69727;53.132;8.230;2023-05-07T05:02:48;17.52;;;9.25;;
80400;SDS011;69727;53.132;8.230;2023-05-07T05:05:13;20.33;;;9.38;;
80400;SDS011;69727;53.132;8.230;2023-05-07T05:07:38;17.30;;;8.68;;
80400;SDS011;69727;53.132;8.230;2023-05-07T05:10:04;19.40;;;9.85;;
80400;SDS011;69727;53.132;8.230;2023-05-07T05:12:30;22.13;;;10.95;;
80400;SDS011;69727;53.132;8.230;2023-05-07T05:14:56;20.92;;;10.15;;
80400;SDS011;69727;53.132;8.230;2023-05-07T05:17:21;19.30;;;9.80;;
80400;SDS011;69727;53.132;8.230;2023-05-07T05:19:47;21.13;;;9.60;;
80400;SDS011;69727;53.132;8.230;2023-05-07T05:22:12;23.37;;;10.93;;
80400;SDS011;69727;53.132;8.230;2023-05-07T05:24:37;22.07;;;10.43;;
80400;SDS011;69727;53.132;8.230;2023-05-07T05:27:03;21.50;;;10.37;;
80400;SDS011;69727;53.132;8.230;2023-05-07T05:29:28;20.90;;;10.10;;
80400;SDS011;69727;53.132;8.230;2023-05-07T05:31:55;25.48;;;11.10;;
80400;SDS011;69727;53.132;8.230;2023-05-07T05:34:20;21.67;;;11.40;;
80400;SDS011;69727;53.132;8.230;2023-05-07T05:36:47;20.95;;;10.23;;
80400;SDS011;69727;53.132;8.230;2023-05-07T05:39:12;22.83;;;10.15;;
80400;SDS011;69727;53.132;8.230;2023-05-07T05:41:37;23.73;;;11.60;;
80400;SDS011;69727;53.132;8.230;2023-05-07T05:44:03;19.65;;;11.30;;
80400;SDS011;69727;53.132;8.230;2023-05-07T05:46:28;22.07;;;11.33;;
80400;SDS011;69727;53.132;8.230;2023-05-07T05:48:54;21.17;;;10.85;;
80400;SDS011;69727;53.132;8.230;2023-05-07T05:51:20;21.03;;;10.50;;
80400;SDS011;69727;53.132;8.230;2023-05-07T05:53:46;22.70;;;10.00;;
80400;SDS011;69727;53.132;8.230;2023-05-07T05:56:12;21.25;;;10.55;;
80400;SDS011;69727;53.132;8.230;2023-05-07T05:58:37;22.70;;;10.93;;
80400;SDS011;69727;53.132;8.230;2023-05-07T06:01:03;20.63;;;10.80;;
80400;SDS011;69727;53.132;8.230;2023-05-07T06:03:28;22.92;;;11.15;;
80400;SDS011;69727;53.132;8.230;2023-05-07T06:05:54;19.77;;;10.13;;
80400;SDS011;69727;53.132;8.230;2023-05-07T06:08:19;19.80;;;9.73;;
80400;SDS011;69727;53.132;8.230;2023-05-07T06:10:44;19.57;;;9.97;;
80400;SDS011;69727;53.132;8.230;2023-05-07T06:13:10;17.08;;;8.93;;
80400;SDS011;69727;53.132;8.230;2023-05-07T06:15:36;19.10;;;9.43;;
80400;SDS011;69727;53.132;8.230;2023-05-07T06:18:01;17.17;;;9.20;;
80400;SDS011;69727;53.132;8.230;2023-05-07T06:20:27;16.40;;;9.10;;
80400;SDS011;69727;53.132;8.230;2023-05-07T06:22:52;20.43;;;9.63;;
80400;SDS011;69727;53.132;8.230;2023-05-07T06:25:17;18.03;;;8.90;;
80400;SDS011;69727;53.132;8.230;2023-05-07T06:27:43;15.67;;;9.00;;
80400;SDS011;69727;53.132;8.230;2023-05-07T06:30:08;22.90;;;10.47;;
80400;SDS011;69727;53.132;8.230;2023-05-07T06:32:34;18.35;;;9.93;;
80400;SDS011;69727;53.132;8.230;2023-05-07T06:34:59;20.13;;;9.83;;
80400;SDS011;69727;53.132;8.230;2023-05-07T06:37:25;19.67;;;10.63;;
80400;SDS011;69727;53.132;8.230;2023-05-07T06:39:50;19.13;;;9.82;;
80400;SDS011;69727;53.132;8.230;2023-05-07T06:42:15;19.23;;;9.80;;
80400;SDS011;69727;53.132;8.230;2023-05-07T06:44:41;17.35;;;8.98;;
80400;SDS011;69727;53.132;8.230;2023-05-07T06:47:06;15.43;;;8.35;;
80400;SDS011;69727;53.132;8.230;2023-05-07T06:49:32;19.07;;;9.17;;
80400;SDS011;69727;53.132;8.230;2023-05-07T06:51:58;18.85;;;9.30;;
80400;SDS011;69727;53.132;8.230;2023-05-07T06:54:23;17.35;;;9.50;;
80400;SDS011;69727;53.132;8.230;2023-05-07T06:56:49;19.40;;;9.25;;
80400;SDS011;69727;53.132;8.230;2023-05-07T06:59:14;16.75;;;8.00;;
80400;SDS011;69727;53.132;8.230;2023-05-07T07:01:40;17.83;;;9.10;;
80400;SDS011;69727;53.132;8.230;2023-05-07T07:04:06;17.63;;;8.88;;
80400;SDS011;69727;53.132;8.230;2023-05-07T07:06:31;13.75;;;8.00;;
80400;SDS011;69727;53.132;8.230;2023-05-07T07:08:57;15.98;;;8.25;;
80400;SDS011;69727;53.132;8.230;2023-05-07T07:11:23;13.90;;;7.45;;
80400;SDS011;69727;53.132;8.230;2023-05-07T07:13:48;15.03;;;7.47;;
80400;SDS011;69727;53.132;8.230;2023-05-07T07:16:15;13.02;;;7.80;;
80400;SDS011;69727;53.132;8.230;2023-05-07T07:18:41;12.55;;;6.97;;
80400;SDS011;69727;53.132;8.230;2023-05-07T07:21:06;13.43;;;7.30;;
80400;SDS011;69727;53.132;8.230;2023-05-07T07:23:34;15.45;;;8.10;;
80400;SDS011;69727;53.132;8.230;2023-05-07T07:26:00;12.20;;;7.37;;
80400;SDS011;69727;53.132;8.230;2023-05-07T07:28:25;15.13;;;7.80;;
80400;SDS011;69727;53.132;8.230;2023-05-07T07:30:50;11.55;;;7.28;;
80400;SDS011;69727;53.132;8.230;2023-05-07T07:33:16;13.77;;;6.93;;
80400;SDS011;69727;53.132;8.230;2023-05-07T07:35:42;12.67;;;6.77;;
80400;SDS011;69727;53.132;8.230;2023-05-07T07:38:07;12.25;;;7.50;;
80400;SDS011;69727;53.132;8.230;2023-05-07T07:40:36;13.88;;;7.20;;
80400;SDS011;69727;53.132;8.230;2023-05-07T07:43:01;14.55;;;7.78;;
80400;SDS011;69727;53.132;8.230;2023-05-07T07:45:27;13.80;;;7.57;;
80400;SDS011;69727;53.132;8.230;2023-05-07T07:47:52;13.60;;;7.30;;
80400;SDS011;69727;53.132;8.230;2023-05-07T07:50:17;12.47;;;7.63;;
80400;SDS011;69727;53.132;8.230;2023-05-07T07:52:43;12.63;;;6.93;;
80400;SDS011;69727;53.132;8.230;2023-05-07T07:55:09;13.48;;;7.43;;
80400;SDS011;69727;53.132;8.230;2023-05-07T07:57:34;12.38;;;7.13;;
80400;SDS011;69727;53.132;8.230;2023-05-07T08:00:00;13.25;;;7.28;;
80400;SDS011;69727;53.132;8.230;2023-05-07T08:02:25;13.50;;;7.18;;
80400;SDS011;69727;53.132;8.230;2023-05-07T08:04:51;12.90;;;7.35;;
80400;SDS011;69727;53.132;8.230;2023-05-07T08:07:16;12.00;;;6.90;;
80400;SDS011;69727;53.132;8.230;2023-05-07T08:09:45;11.25;;;6.88;;
80400;SDS011;69727;53.132;8.230;2023-05-07T08:12:11;13.40;;;7.47;;
80400;SDS011;69727;53.132;8.230;2023-05-07T08:14:36;12.88;;;7.38;;
80400;SDS011;69727;53.132;8.230;2023-05-07T08:17:02;13.43;;;7.10;;
80400;SDS011;69727;53.132;8.230;2023-05-07T08:19:27;11.77;;;7.13;;
80400;SDS011;69727;53.132;8.230;2023-05-07T08:21:53;14.10;;;7.87;;
80400;SDS011;69727;53.132;8.230;2023-05-07T08:24:18;13.77;;;8.20;;
80400;SDS011;69727;53.132;8.230;2023-05-07T08:26:44;11.77;;;7.17;;
80400;SDS011;69727;53.132;8.230;2023-05-07T08:29:10;16.25;;;8.45;;
80400;SDS011;69727;53.132;8.230;2023-05-07T08:31:35;13.43;;;8.07;;
80400;SDS011;69727;53.132;8.230;2023-05-07T08:34:00;14.73;;;8.43;;
80400;SDS011;69727;53.132;8.230;2023-05-07T08:36:26;14.88;;;8.38;;
80400;SDS011;69727;53.132;8.230;2023-05-07T08:38:52;14.70;;;9.15;;
80400;SDS011;69727;53.132;8.230;2023-05-07T08:41:18;13.90;;;8.02;;
80400;SDS011;69727;53.132;8.230;2023-05-07T08:43:45;12.32;;;7.53;;
80400;SDS011;69727;53.132;8.230;2023-05-07T08:46:15;16.85;;;9.23;;
80400;SDS011;69727;53.132;8.230;2023-05-07T08:48:43;13.50;;;8.25;;
80400;SDS011;69727;53.132;8.230;2023-05-07T08:51:12;13.60;;;8.65;;
80400;SDS011;69727;53.132;8.230;2023-05-07T08:53:38;16.67;;;9.35;;
80400;SDS011;69727;53.132;8.230;2023-05-07T08:56:05;13.93;;;8.38;;
80400;SDS011;69727;53.132;8.230;2023-05-07T08:58:33;13.20;;;7.78;;
80400;SDS011;69727;53.132;8.230;2023-05-07T09:00:58;14.88;;;8.38;;
80400;SDS011;69727;53.132;8.230;2023-05-07T09:03:27;15.70;;;9.02;;
80400;SDS011;69727;53.132;8.230;2023-05-07T09:05:53;13.57;;;8.03;;
80400;SDS011;69727;53.132;8.230;2023-05-07T09:08:18;14.43;;;7.90;;
80400;SDS011;69727;53.132;8.230;2023-05-07T09:10:49;13.38;;;8.23;;
80400;SDS011;69727;53.132;8.230;2023-05-07T09:13:14;13.00;;;7.88;;
80400;SDS011;69727;53.132;8.230;2023-05-07T09:15:40;12.80;;;7.70;;
80400;SDS011;69727;53.132;8.230;2023-05-07T09:18:06;12.05;;;7.38;;
80400;SDS011;69727;53.132;8.230;2023-05-07T09:20:31;13.00;;;7.75;;
80400;SDS011;69727;53.132;8.230;2023-05-07T09:22:57;13.40;;;7.28;;
80400;SDS011;69727;53.132;8.230;2023-05-07T09:25:27;12.32;;;7.15;;
80400;SDS011;69727;53.132;8.230;2023-05-07T09:27:57;10.63;;;7.07;;
80400;SDS011;69727;53.132;8.230;2023-05-07T09:30:23;12.07;;;7.20;;
80400;SDS011;69727;53.132;8.230;2023-05-07T09:32:53;12.40;;;7.63;;
80400;SDS011;69727;53.132;8.230;2023-05-07T09:35:18;12.43;;;8.27;;
80400;SDS011;69727;53.132;8.230;2023-05-07T09:37:46;9.93;;;6.57;;
80400;SDS011;69727;53.132;8.230;2023-05-07T09:40:20;12.25;;;7.68;;
80400;SDS011;69727;53.132;8.230;2023-05-07T09:42:48;11.23;;;6.80;;
80400;SDS011;69727;53.132;8.230;2023-05-07T09:45:15;11.48;;;7.30;;
80400;SDS011;69727;53.132;8.230;2023-05-07T09:47:42;11.57;;;7.03;;
80400;SDS011;69727;53.132;8.230;2023-05-07T09:50:11;10.25;;;7.10;;
80400;SDS011;69727;53.132;8.230;2023-05-07T09:52:40;10.85;;;7.00;;
80400;SDS011;69727;53.132;8.230;2023-05-07T09:55:06;11.27;;;7.13;;
80400;SDS011;69727;53.132;8.230;2023-05-07T09:57:35;9.77;;;6.55;;
80400;SDS011;69727;53.132;8.230;2023-05-07T10:00:02;10.13;;;6.72;;
80400;SDS011;69727;53.132;8.230;2023-05-07T10:08:56;9.55;;;6.25;;
80400;SDS011;69727;53.132;8.230;2023-05-07T10:11:21;10.43;;;6.28;;
80400;SDS011;69727;53.132;8.230;2023-05-07T10:13:48;9.93;;;7.18;;
80400;SDS011;69727;53.132;8.230;2023-05-07T10:16:14;9.73;;;6.45;;
80400;SDS011;69727;53.132;8.230;2023-05-07T10:18:42;9.43;;;6.40;;
80400;SDS011;69727;53.132;8.230;2023-05-07T10:21:10;9.65;;;6.47;;
80400;SDS011;69727;53.132;8.230;2023-05-07T10:23:40;10.85;;;6.93;;
80400;SDS011;69727;53.132;8.230;2023-05-07T10:26:09;10.30;;;6.35;;
80400;SDS011;69727;53.132;8.230;2023-05-07T10:28:41;11.27;;;6.80;;
80400;SDS011;69727;53.132;8.230;2023-05-07T10:33:59;12.45;;;7.80;;
80400;SDS011;69727;53.132;8.230;2023-05-07T10:36:28;10.00;;;6.57;;
80400;SDS011;69727;53.132;8.230;2023-05-07T10:38:53;10.73;;;7.32;;
80400;SDS011;69727;53.132;8.230;2023-05-07T10:41:20;10.98;;;6.57;;
80400;SDS011;69727;53.132;8.230;2023-05-07T10:43:46;10.57;;;7.22;;
80400;SDS011;69727;53.132;8.230;2023-05-07T10:46:16;10.00;;;6.65;;
80400;SDS011;69727;53.132;8.230;2023-05-07T10:51:31;12.73;;;7.03;;
80400;SDS011;69727;53.132;8.230;2023-05-07T10:56:35;9.60;;;6.25;;
80400;SDS011;69727;53.132;8.230;2023-05-07T11:02:01;8.90;;;6.18;;
80400;SDS011;69727;53.132;8.230;2023-05-07T11:04:29;9.77;;;6.75;;
80400;SDS011;69727;53.132;8.230;2023-05-07T11:07:38;9.40;;;6.82;;
80400;SDS011;69727;53.132;8.230;2023-05-07T11:09:58;8.85;;;6.30;;
80400;SDS011;69727;53.132;8.230;2023-05-07T11:15:01;11.18;;;7.68;;
80400;SDS011;69727;53.132;8.230;2023-05-07T11:17:27;12.75;;;7.63;;
80400;SDS011;69727;53.132;8.230;2023-05-07T11:19:56;11.68;;;8.02;;
80400;SDS011;69727;53.132;8.230;2023-05-07T11:25:05;10.20;;;6.82;;
80400;SDS011;69727;53.132;8.230;2023-05-07T11:27:31;9.98;;;7.05;;
80400;SDS011;69727;53.132;8.230;2023-05-07T11:29:57;10.70;;;7.43;;
80400;SDS011;69727;53.132;8.230;2023-05-07T11:32:27;10.73;;;7.32;;
80400;SDS011;69727;53.132;8.230;2023-05-07T11:34:55;11.52;;;7.88;;
80400;SDS011;69727;53.132;8.230;2023-05-07T11:37:22;10.63;;;7.30;;
80400;SDS011;69727;53.132;8.230;2023-05-07T11:40:07;10.80;;;7.43;;
80400;SDS011;69727;53.132;8.230;2023-05-07T11:42:35;10.25;;;6.90;;
80400;SDS011;69727;53.132;8.230;2023-05-07T11:45:02;11.00;;;7.15;;
80400;SDS011;69727;53.132;8.230;2023-05-07T11:47:29;10.73;;;7.30;;
80400;SDS011;69727;53.132;8.230;2023-05-07T11:49:55;11.88;;;7.55;;
80400;SDS011;69727;53.132;8.230;2023-05-07T11:52:22;11.05;;;7.38;;
80400;SDS011;69727;53.132;8.230;2023-05-07T11:54:52;10.50;;;6.72;;
80400;SDS011;69727;53.132;8.230;2023-05-07T11:57:19;10.77;;;7.10;;
80400;SDS011;69727;53.132;8.230;2023-05-07T11:59:45;9.48;;;6.78;;
80400;SDS011;69727;53.132;8.230;2023-05-07T12:02:28;11.30;;;7.07;;
80400;SDS011;69727;53.132;8.230;2023-05-07T12:04:56;11.73;;;7.35;;
80400;SDS011;69727;53.132;8.230;2023-05-07T12:07:23;10.80;;;6.82;;
80400;SDS011;69727;53.132;8.230;2023-05-07T14:05:25;8.50;;;5.50;;
80400;SDS011;69727;53.132;8.230;2023-05-07T14:07:51;8.50;;;5.63;;
80400;SDS011;69727;53.132;8.230;2023-05-07T14:10:18;9.45;;;5.22;;
80400;SDS011;69727;53.132;8.230;2023-05-07T14:12:44;8.35;;;5.72;;
80400;SDS011;69727;53.132;8.230;2023-05-07T14:15:10;7.05;;;5.15;;
80400;SDS011;69727;53.132;8.230;2023-05-07T14:17:36;9.15;;;5.70;;
80400;SDS011;69727;53.132;8.230;2023-05-07T14:20:08;7.63;;;5.38;;
80400;SDS011;69727;53.132;8.230;2023-05-07T14:22:35;7.15;;;5.32;;
80400;SDS011;69727;53.132;8.230;2023-05-07T16:13:50;8.35;;;5.70;;
80400;SDS011;69727;53.132;8.230;2023-05-07T16:16:15;9.77;;;5.90;;
80400;SDS011;69727;53.132;8.230;2023-05-07T16:18:41;8.88;;;5.80;;
80400;SDS011;69727;53.132;8.230;2023-05-07T16:21:06;9.47;;;6.27;;
80400;SDS011;69727;53.132;8.230;2023-05-07T16:23:31;8.93;;;5.57;;
80400;SDS011;69727;53.132;8.230;2023-05-07T16:26:25;8.38;;;5.80;;
80400;SDS011;69727;53.132;8.230;2023-05-07T16:29:11;8.23;;;5.65;;
80400;SDS011;69727;53.132;8.230;2023-05-07T16:31:40;8.57;;;5.78;;
80400;SDS011;69727;53.132;8.230;2023-05-07T16:34:26;7.53;;;5.20;;
80400;SDS011;69727;53.132;8.230;2023-05-07T16:37:51;10.32;;;5.63;;
80400;SDS011;69727;53.132;8.230;2023-05-07T16:41:34;9.50;;;5.50;;
80400;SDS011;69727;53.132;8.230;2023-05-07T16:44:53;7.80;;;5.88;;
80400;SDS011;69727;53.132;8.230;2023-05-07T16:47:38;9.70;;;5.85;;
80400;SDS011;69727;53.132;8.230;2023-05-07T16:50:11;10.98;;;6.13;;
80400;SDS011;69727;53.132;8.230;2023-05-07T16:52:44;10.10;;;5.50;;
80400;SDS011;69727;53.132;8.230;2023-05-07T16:55:42;9.57;;;5.60;;
80400;SDS011;69727;53.132;8.230;2023-05-07T16:58:27;8.90;;;5.75;;
80400;SDS011;69727;53.132;8.230;2023-05-07T17:00:53;7.10;;;5.35;;
80400;SDS011;69727;53.132;8.230;2023-05-07T17:03:18;7.03;;;5.10;;
80400;SDS011;69727;53.132;8.230;2023-05-07T17:05:44;8.57;;;5.93;;
80400;SDS011;69727;53.132;8.230;2023-05-07T17:08:09;8.35;;;5.60;;
80400;SDS011;69727;53.132;8.230;2023-05-07T17:10:34;8.35;;;5.82;;
80400;SDS011;69727;53.132;8.230;2023-05-07T17:13:00;7.40;;;5.40;;
80400;SDS011;69727;53.132;8.230;2023-05-07T17:15:25;9.00;;;5.40;;
80400;SDS011;69727;53.132;8.230;2023-05-07T17:17:50;8.25;;;5.38;;
80400;SDS011;69727;53.132;8.230;2023-05-07T17:20:16;7.70;;;5.03;;
80400;SDS011;69727;53.132;8.230;2023-05-07T17:22:41;7.23;;;4.77;;
80400;SDS011;69727;53.132;8.230;2023-05-07T17:25:07;8.20;;;4.60;;
80400;SDS011;69727;53.132;8.230;2023-05-07T17:27:32;7.10;;;4.80;;
80400;SDS011;69727;53.132;8.230;2023-05-07T17:29:58;8.38;;;4.88;;
80400;SDS011;69727;53.132;8.230;2023-05-07T17:32:24;6.53;;;4.32;;
80400;SDS011;69727;53.132;8.230;2023-05-07T17:34:50;7.82;;;5.10;;
80400;SDS011;69727;53.132;8.230;2023-05-07T17:37:15;7.27;;;4.90;;
80400;SDS011;69727;53.132;8.230;2023-05-07T17:39:40;8.55;;;5.00;;
80400;SDS011;69727;53.132;8.230;2023-05-07T17:42:06;7.80;;;4.65;;
80400;SDS011;69727;53.132;8.230;2023-05-07T17:44:31;7.53;;;4.73;;
80400;SDS011;69727;53.132;8.230;2023-05-07T17:46:57;7.82;;;5.13;;
80400;SDS011;69727;53.132;8.230;2023-05-07T17:49:23;7.65;;;5.03;;
80400;SDS011;69727;53.132;8.230;2023-05-07T17:51:48;6.68;;;4.45;;
80400;SDS011;69727;53.132;8.230;2023-05-07T17:54:14;8.13;;;4.93;;
80400;SDS011;69727;53.132;8.230;2023-05-07T17:56:39;8.33;;;5.10;;
80400;SDS011;69727;53.132;8.230;2023-05-07T17:59:04;8.30;;;5.27;;
80400;SDS011;69727;53.132;8.230;2023-05-07T18:01:30;8.48;;;4.63;;
80400;SDS011;69727;53.132;8.230;2023-05-07T18:03:58;7.03;;;4.63;;
80400;SDS011;69727;53.132;8.230;2023-05-07T18:06:23;7.85;;;4.05;;
80400;SDS011;69727;53.132;8.230;2023-05-07T18:08:48;7.85;;;4.80;;
80400;SDS011;69727;53.132;8.230;2023-05-07T18:11:14;6.70;;;4.55;;
80400;SDS011;69727;53.132;8.230;2023-05-07T18:13:39;8.02;;;4.40;;
80400;SDS011;69727;53.132;8.230;2023-05-07T18:16:05;6.40;;;4.18;;
80400;SDS011;69727;53.132;8.230;2023-05-07T18:18:31;6.82;;;4.28;;
80400;SDS011;69727;53.132;8.230;2023-05-07T18:20:59;6.32;;;4.35;;
80400;SDS011;69727;53.132;8.230;2023-05-07T18:23:25;8.23;;;4.43;;
80400;SDS011;69727;53.132;8.230;2023-05-07T18:25:50;6.47;;;4.05;;
80400;SDS011;69727;53.132;8.230;2023-05-07T18:28:16;6.47;;;4.15;;
80400;SDS011;69727;53.132;8.230;2023-05-07T18:30:41;7.15;;;4.57;;
80400;SDS011;69727;53.132;8.230;2023-05-07T18:33:07;9.45;;;4.75;;
80400;SDS011;69727;53.132;8.230;2023-05-07T18:35:32;6.97;;;4.03;;
80400;SDS011;69727;53.132;8.230;2023-05-07T18:37:58;6.82;;;4.55;;
80400;SDS011;69727;53.132;8.230;2023-05-07T18:40:24;8.10;;;4.20;;